sensor_id;sensor_type;location;lat;lon;timestamp;P1;durP1;ratioP1;P2;durP2;ratioP2
16979;SDS011;42288;52.182;21.156;2024-03-08T00:00:50;81.30;;;30.27;;
16979;SDS011;42288;52.182;21.156;2024-03-08T00:03:16;92.57;;;32.50;;
16979;SDS011;42288;52.182;21.156;2024-03-08T00:05:42;76.37;;;29.07;;
16979;SDS011;42288;52.182;21.156;2024-03-08T00:08:07;88.20;;;31.77;;
16979;SDS011;42288;52.182;21.156;2024-03-08T00:10:34;79.57;;;28.93;;
16979;SDS011;42288;52.182;21.156;2024-03-08T00:13:00;94.43;;;31.83;;
16979;SDS011;42288;52.182;21.156;2024-03-08T00:15:28;98.30;;;30.67;;
16979;SDS011;42288;52.182;21.156;2024-03-08T00:17:54;75.87;;;29.97;;
16979;SDS011;42288;52.182;21.156;2024-03-08T00:20:20;82.30;;;31.53;;
16979;SDS011;42288;52.182;21.156;2024-03-08T00:22:45;84.00;;;31.10;;
16979;SDS011;42288;52.182;21.156;2024-03-08T00:25:11;78.20;;;30.17;;
16979;SDS011;42288;52.182;21.156;2024-03-08T00:27:37;76.73;;;30.93;;
16979;SDS011;42288;52.182;21.156;2024-03-08T00:30:09;71.40;;;28.30;;
16979;SDS011;42288;52.182;21.156;2024-03-08T00:32:35;76.00;;;30.83;;
16979;SDS011;42288;52.182;21.156;2024-03-08T00:35:01;75.47;;;29.80;;
16979;SDS011;42288;52.182;21.156;2024-03-08T00:37:27;80.00;;;30.40;;
16979;SDS011;42288;52.182;21.156;2024-03-08T00:39:53;76.80;;;32.87;;
16979;SDS011;42288;52.182;21.156;2024-03-08T00:42:19;82.43;;;31.03;;
16979;SDS011;42288;52.182;21.156;2024-03-08T00:44:45;78.70;;;28.37;;
16979;SDS011;42288;52.182;21.156;2024-03-08T00:47:11;69.73;;;27.83;;
16979;SDS011;42288;52.182;21.156;2024-03-08T00:49:37;71.73;;;28.43;;
16979;SDS011;42288;52.182;21.156;2024-03-08T00:52:03;65.30;;;25.83;;
16979;SDS011;42288;52.182;21.156;2024-03-08T00:54:33;71.73;;;26.80;;
16979;SDS011;42288;52.182;21.156;2024-03-08T00:56:58;67.43;;;29.03;;
16979;SDS011;42288;52.182;21.156;2024-03-08T00:59:27;80.57;;;29.30;;
16979;SDS011;42288;52.182;21.156;2024-03-08T01:01:53;74.80;;;27.60;;
16979;SDS011;42288;52.182;21.156;2024-03-08T01:04:19;75.47;;;30.33;;
16979;SDS011;42288;52.182;21.156;2024-03-08T01:06:46;72.73;;;28.40;;
16979;SDS011;42288;52.182;21.156;2024-03-08T01:09:12;68.77;;;29.23;;
16979;SDS011;42288;52.182;21.156;2024-03-08T01:11:38;84.70;;;30.07;;
16979;SDS011;42288;52.182;21.156;2024-03-08T01:14:04;83.93;;;33.30;;
16979;SDS011;42288;52.182;21.156;2024-03-08T01:16:30;99.60;;;35.63;;
16979;SDS011;42288;52.182;21.156;2024-03-08T01:18:58;95.63;;;34.47;;
16979;SDS011;42288;52.182;21.156;2024-03-08T01:21:24;86.57;;;35.30;;
16979;SDS011;42288;52.182;21.156;2024-03-08T01:23:49;99.43;;;35.77;;
16979;SDS011;42288;52.182;21.156;2024-03-08T01:26:15;85.30;;;34.77;;
16979;SDS011;42288;52.182;21.156;2024-03-08T01:28:41;92.37;;;35.47;;
16979;SDS011;42288;52.182;21.156;2024-03-08T01:31:06;82.50;;;33.67;;
16979;SDS011;42288;52.182;21.156;2024-03-08T01:33:32;92.20;;;35.60;;
16979;SDS011;42288;52.182;21.156;2024-03-08T01:35:58;95.80;;;33.83;;
16979;SDS011;42288;52.182;21.156;2024-03-08T01:38:23;95.10;;;34.03;;
16979;SDS011;42288;52.182;21.156;2024-03-08T01:40:50;105.13;;;33.80;;
16979;SDS011;42288;52.182;21.156;2024-03-08T01:45:46;93.53;;;34.67;;
16979;SDS011;42288;52.182;21.156;2024-03-08T01:48:13;88.77;;;34.07;;
16979;SDS011;42288;52.182;21.156;2024-03-08T01:50:43;88.07;;;34.17;;
16979;SDS011;42288;52.182;21.156;2024-03-08T01:53:09;100.00;;;35.03;;
16979;SDS011;42288;52.182;21.156;2024-03-08T01:55:36;96.47;;;35.23;;
16979;SDS011;42288;52.182;21.156;2024-03-08T01:58:04;96.33;;;35.37;;
16979;SDS011;42288;52.182;21.156;2024-03-08T02:00:30;91.13;;;35.47;;
16979;SDS011;42288;52.182;21.156;2024-03-08T02:02:57;85.07;;;32.50;;
16979;SDS011;42288;52.182;21.156;2024-03-08T02:05:23;91.97;;;34.23;;
16979;SDS011;42288;52.182;21.156;2024-03-08T02:07:49;89.27;;;35.03;;
16979;SDS011;42288;52.182;21.156;2024-03-08T02:10:15;87.37;;;33.30;;
16979;SDS011;42288;52.182;21.156;2024-03-08T02:12:40;94.33;;;34.23;;
16979;SDS011;42288;52.182;21.156;2024-03-08T02:15:06;88.73;;;35.07;;
16979;SDS011;42288;52.182;21.156;2024-03-08T02:17:32;89.77;;;34.10;;
16979;SDS011;42288;52.182;21.156;2024-03-08T02:20:01;100.63;;;35.13;;
16979;SDS011;42288;52.182;21.156;2024-03-08T02:22:28;91.50;;;32.93;;
16979;SDS011;42288;52.182;21.156;2024-03-08T02:24:55;98.03;;;37.67;;
16979;SDS011;42288;52.182;21.156;2024-03-08T02:27:24;102.20;;;35.93;;
16979;SDS011;42288;52.182;21.156;2024-03-08T02:29:50;87.47;;;34.97;;
16979;SDS011;42288;52.182;21.156;2024-03-08T02:32:20;107.83;;;38.00;;
16979;SDS011;42288;52.182;21.156;2024-03-08T02:34:47;117.60;;;38.47;;
16979;SDS011;42288;52.182;21.156;2024-03-08T02:37:12;93.70;;;35.27;;
16979;SDS011;42288;52.182;21.156;2024-03-08T02:39:38;104.93;;;36.63;;
16979;SDS011;42288;52.182;21.156;2024-03-08T02:42:04;98.37;;;36.00;;
16979;SDS011;42288;52.182;21.156;2024-03-08T02:44:29;104.53;;;37.87;;
16979;SDS011;42288;52.182;21.156;2024-03-08T02:46:55;93.30;;;38.10;;
16979;SDS011;42288;52.182;21.156;2024-03-08T02:49:21;89.07;;;35.97;;
16979;SDS011;42288;52.182;21.156;2024-03-08T02:51:46;92.43;;;36.67;;
16979;SDS011;42288;52.182;21.156;2024-03-08T02:54:12;106.97;;;37.93;;
16979;SDS011;42288;52.182;21.156;2024-03-08T02:56:38;110.67;;;37.20;;
16979;SDS011;42288;52.182;21.156;2024-03-08T02:59:03;99.23;;;38.60;;
16979;SDS011;42288;52.182;21.156;2024-03-08T03:01:29;102.37;;;35.23;;
16979;SDS011;42288;52.182;21.156;2024-03-08T03:03:54;98.63;;;37.77;;
16979;SDS011;42288;52.182;21.156;2024-03-08T03:06:20;110.80;;;36.90;;
16979;SDS011;42288;52.182;21.156;2024-03-08T03:08:46;97.60;;;35.67;;
16979;SDS011;42288;52.182;21.156;2024-03-08T03:11:12;100.97;;;35.00;;
16979;SDS011;42288;52.182;21.156;2024-03-08T03:13:38;100.93;;;37.60;;
16979;SDS011;42288;52.182;21.156;2024-03-08T03:16:04;90.27;;;35.23;;
16979;SDS011;42288;52.182;21.156;2024-03-08T03:18:30;96.17;;;35.97;;
16979;SDS011;42288;52.182;21.156;2024-03-08T03:20:57;90.40;;;34.80;;
16979;SDS011;42288;52.182;21.156;2024-03-08T03:23:23;96.70;;;36.73;;
16979;SDS011;42288;52.182;21.156;2024-03-08T03:25:51;93.87;;;36.50;;
16979;SDS011;42288;52.182;21.156;2024-03-08T03:28:17;97.40;;;35.27;;
16979;SDS011;42288;52.182;21.156;2024-03-08T03:30:46;94.90;;;35.23;;
16979;SDS011;42288;52.182;21.156;2024-03-08T03:33:12;88.13;;;34.70;;
16979;SDS011;42288;52.182;21.156;2024-03-08T03:35:39;100.63;;;34.33;;
16979;SDS011;42288;52.182;21.156;2024-03-08T03:38:06;100.40;;;36.47;;
16979;SDS011;42288;52.182;21.156;2024-03-08T03:40:41;95.47;;;34.83;;
16979;SDS011;42288;52.182;21.156;2024-03-08T03:43:06;92.70;;;35.67;;
16979;SDS011;42288;52.182;21.156;2024-03-08T03:45:32;115.47;;;36.30;;
16979;SDS011;42288;52.182;21.156;2024-03-08T03:48:04;87.50;;;34.37;;
16979;SDS011;42288;52.182;21.156;2024-03-08T03:50:31;100.33;;;34.03;;
16979;SDS011;42288;52.182;21.156;2024-03-08T03:52:59;97.93;;;34.37;;
16979;SDS011;42288;52.182;21.156;2024-03-08T03:55:25;98.47;;;33.97;;
16979;SDS011;42288;52.182;21.156;2024-03-08T03:57:50;89.80;;;34.90;;
16979;SDS011;42288;52.182;21.156;2024-03-08T04:00:17;93.07;;;34.93;;
16979;SDS011;42288;52.182;21.156;2024-03-08T04:02:43;85.83;;;33.07;;
16979;SDS011;42288;52.182;21.156;2024-03-08T04:05:09;101.20;;;37.27;;
16979;SDS011;42288;52.182;21.156;2024-03-08T04:07:35;93.60;;;35.30;;
16979;SDS011;42288;52.182;21.156;2024-03-08T04:10:02;81.30;;;32.93;;
16979;SDS011;42288;52.182;21.156;2024-03-08T04:12:28;104.13;;;33.33;;
16979;SDS011;42288;52.182;21.156;2024-03-08T04:14:55;98.13;;;33.87;;
16979;SDS011;42288;52.182;21.156;2024-03-08T04:17:22;98.13;;;33.87;;
16979;SDS011;42288;52.182;21.156;2024-03-08T04:19:49;94.83;;;34.83;;
16979;SDS011;42288;52.182;21.156;2024-03-08T04:22:15;79.53;;;32.37;;
16979;SDS011;42288;52.182;21.156;2024-03-08T04:24:41;86.20;;;33.73;;
16979;SDS011;42288;52.182;21.156;2024-03-08T04:27:07;90.73;;;32.80;;
16979;SDS011;42288;52.182;21.156;2024-03-08T04:29:32;77.77;;;32.30;;
16979;SDS011;42288;52.182;21.156;2024-03-08T04:31:59;95.20;;;32.73;;
16979;SDS011;42288;52.182;21.156;2024-03-08T04:34:28;84.77;;;34.63;;
16979;SDS011;42288;52.182;21.156;2024-03-08T04:36:54;84.73;;;33.33;;
16979;SDS011;42288;52.182;21.156;2024-03-08T04:39:22;91.50;;;34.13;;
16979;SDS011;42288;52.182;21.156;2024-03-08T04:41:47;94.40;;;34.20;;
16979;SDS011;42288;52.182;21.156;2024-03-08T04:44:14;88.03;;;32.77;;
16979;SDS011;42288;52.182;21.156;2024-03-08T04:46:40;88.27;;;32.70;;
16979;SDS011;42288;52.182;21.156;2024-03-08T04:49:06;79.73;;;32.80;;
16979;SDS011;42288;52.182;21.156;2024-03-08T04:51:32;96.53;;;32.77;;
16979;SDS011;42288;52.182;21.156;2024-03-08T04:53:58;89.50;;;31.90;;
16979;SDS011;42288;52.182;21.156;2024-03-08T04:56:24;85.17;;;31.70;;
16979;SDS011;42288;52.182;21.156;2024-03-08T04:58:50;81.50;;;33.20;;
16979;SDS011;42288;52.182;21.156;2024-03-08T05:01:16;95.90;;;33.37;;
16979;SDS011;42288;52.182;21.156;2024-03-08T05:03:41;100.03;;;34.83;;
16979;SDS011;42288;52.182;21.156;2024-03-08T05:06:07;92.67;;;35.20;;
16979;SDS011;42288;52.182;21.156;2024-03-08T05:08:33;91.97;;;34.60;;
16979;SDS011;42288;52.182;21.156;2024-03-08T05:10:59;88.23;;;33.87;;
16979;SDS011;42288;52.182;21.156;2024-03-08T05:13:28;108.93;;;37.97;;
16979;SDS011;42288;52.182;21.156;2024-03-08T05:15:55;93.30;;;38.30;;
16979;SDS011;42288;52.182;21.156;2024-03-08T05:18:23;99.10;;;34.77;;
16979;SDS011;42288;52.182;21.156;2024-03-08T05:20:49;103.07;;;37.97;;
16979;SDS011;42288;52.182;21.156;2024-03-08T05:23:16;92.70;;;34.30;;
16979;SDS011;42288;52.182;21.156;2024-03-08T05:25:44;111.80;;;35.63;;
16979;SDS011;42288;52.182;21.156;2024-03-08T05:28:11;79.97;;;34.70;;
16979;SDS011;42288;52.182;21.156;2024-03-08T05:30:38;99.67;;;36.03;;
16979;SDS011;42288;52.182;21.156;2024-03-08T05:33:04;97.50;;;38.50;;
16979;SDS011;42288;52.182;21.156;2024-03-08T05:35:29;109.53;;;38.60;;
16979;SDS011;42288;52.182;21.156;2024-03-08T05:37:55;88.93;;;37.27;;
16979;SDS011;42288;52.182;21.156;2024-03-08T05:40:21;102.17;;;41.33;;
16979;SDS011;42288;52.182;21.156;2024-03-08T05:42:46;105.23;;;38.93;;
16979;SDS011;42288;52.182;21.156;2024-03-08T05:45:12;108.03;;;40.33;;
16979;SDS011;42288;52.182;21.156;2024-03-08T05:47:39;113.50;;;41.57;;
16979;SDS011;42288;52.182;21.156;2024-03-08T05:50:05;99.07;;;38.63;;
16979;SDS011;42288;52.182;21.156;2024-03-08T05:52:33;94.30;;;37.77;;
16979;SDS011;42288;52.182;21.156;2024-03-08T05:54:58;117.53;;;41.07;;
16979;SDS011;42288;52.182;21.156;2024-03-08T05:57:24;110.63;;;42.03;;
16979;SDS011;42288;52.182;21.156;2024-03-08T05:59:49;111.07;;;41.13;;
16979;SDS011;42288;52.182;21.156;2024-03-08T06:02:15;141.63;;;44.73;;
16979;SDS011;42288;52.182;21.156;2024-03-08T06:04:44;117.17;;;44.50;;
16979;SDS011;42288;52.182;21.156;2024-03-08T06:07:11;122.43;;;41.63;;
16979;SDS011;42288;52.182;21.156;2024-03-08T06:09:37;123.37;;;42.90;;
16979;SDS011;42288;52.182;21.156;2024-03-08T06:12:03;111.60;;;40.70;;
16979;SDS011;42288;52.182;21.156;2024-03-08T06:14:31;121.17;;;43.20;;
16979;SDS011;42288;52.182;21.156;2024-03-08T06:16:57;144.03;;;46.37;;
16979;SDS011;42288;52.182;21.156;2024-03-08T06:19:23;119.03;;;42.80;;
16979;SDS011;42288;52.182;21.156;2024-03-08T06:21:48;132.17;;;46.93;;
16979;SDS011;42288;52.182;21.156;2024-03-08T06:24:14;120.90;;;46.17;;
16979;SDS011;42288;52.182;21.156;2024-03-08T06:26:40;122.67;;;46.67;;
16979;SDS011;42288;52.182;21.156;2024-03-08T06:29:06;102.77;;;43.50;;
16979;SDS011;42288;52.182;21.156;2024-03-08T06:31:34;120.00;;;45.47;;
16979;SDS011;42288;52.182;21.156;2024-03-08T06:34:03;117.20;;;46.00;;
16979;SDS011;42288;52.182;21.156;2024-03-08T06:36:32;164.00;;;59.03;;
16979;SDS011;42288;52.182;21.156;2024-03-08T06:38:59;142.33;;;52.73;;
16979;SDS011;42288;52.182;21.156;2024-03-08T06:41:24;178.50;;;57.83;;
16979;SDS011;42288;52.182;21.156;2024-03-08T06:43:50;172.17;;;56.97;;
16979;SDS011;42288;52.182;21.156;2024-03-08T06:46:17;195.83;;;64.00;;
16979;SDS011;42288;52.182;21.156;2024-03-08T06:48:43;178.23;;;60.83;;
16979;SDS011;42288;52.182;21.156;2024-03-08T06:51:10;141.23;;;54.97;;
16979;SDS011;42288;52.182;21.156;2024-03-08T06:53:36;126.47;;;49.53;;
16979;SDS011;42288;52.182;21.156;2024-03-08T06:56:03;130.43;;;46.23;;
16979;SDS011;42288;52.182;21.156;2024-03-08T06:58:29;115.07;;;46.17;;
16979;SDS011;42288;52.182;21.156;2024-03-08T07:00:54;127.17;;;43.90;;
16979;SDS011;42288;52.182;21.156;2024-03-08T07:03:23;146.60;;;52.83;;
16979;SDS011;42288;52.182;21.156;2024-03-08T07:05:49;157.83;;;53.17;;
16979;SDS011;42288;52.182;21.156;2024-03-08T07:08:14;176.10;;;57.40;;
16979;SDS011;42288;52.182;21.156;2024-03-08T07:10:41;152.70;;;55.80;;
16979;SDS011;42288;52.182;21.156;2024-03-08T07:13:07;148.27;;;54.40;;
16979;SDS011;42288;52.182;21.156;2024-03-08T07:15:33;123.27;;;48.00;;
16979;SDS011;42288;52.182;21.156;2024-03-08T07:18:00;114.33;;;45.13;;
16979;SDS011;42288;52.182;21.156;2024-03-08T07:20:26;123.23;;;46.87;;
16979;SDS011;42288;52.182;21.156;2024-03-08T07:22:51;132.60;;;47.83;;
16979;SDS011;42288;52.182;21.156;2024-03-08T07:25:17;121.40;;;44.73;;
16979;SDS011;42288;52.182;21.156;2024-03-08T07:27:50;119.77;;;48.43;;
16979;SDS011;42288;52.182;21.156;2024-03-08T07:30:17;126.23;;;47.47;;
16979;SDS011;42288;52.182;21.156;2024-03-08T07:33:15;117.00;;;47.20;;
16979;SDS011;42288;52.182;21.156;2024-03-08T07:35:41;109.63;;;43.87;;
16979;SDS011;42288;52.182;21.156;2024-03-08T07:38:10;124.03;;;46.53;;
16979;SDS011;42288;52.182;21.156;2024-03-08T07:40:37;115.30;;;44.80;;
16979;SDS011;42288;52.182;21.156;2024-03-08T07:43:05;115.90;;;44.50;;
16979;SDS011;42288;52.182;21.156;2024-03-08T07:45:31;95.17;;;40.33;;
16979;SDS011;42288;52.182;21.156;2024-03-08T07:47:57;90.30;;;37.97;;
16979;SDS011;42288;52.182;21.156;2024-03-08T07:50:23;78.33;;;33.57;;
16979;SDS011;42288;52.182;21.156;2024-03-08T07:52:49;103.67;;;42.10;;
16979;SDS011;42288;52.182;21.156;2024-03-08T07:55:14;96.73;;;36.00;;
16979;SDS011;42288;52.182;21.156;2024-03-08T07:57:40;82.90;;;34.00;;
16979;SDS011;42288;52.182;21.156;2024-03-08T08:00:07;87.87;;;33.60;;
16979;SDS011;42288;52.182;21.156;2024-03-08T08:02:35;88.87;;;33.77;;
16979;SDS011;42288;52.182;21.156;2024-03-08T08:05:01;84.87;;;33.87;;
16979;SDS011;42288;52.182;21.156;2024-03-08T08:07:28;72.07;;;30.00;;
16979;SDS011;42288;52.182;21.156;2024-03-08T08:09:54;69.13;;;29.90;;
16979;SDS011;42288;52.182;21.156;2024-03-08T08:12:19;75.33;;;27.87;;
16979;SDS011;42288;52.182;21.156;2024-03-08T08:14:45;62.67;;;28.40;;
16979;SDS011;42288;52.182;21.156;2024-03-08T08:17:11;70.17;;;28.67;;
16979;SDS011;42288;52.182;21.156;2024-03-08T08:19:37;64.10;;;28.37;;
16979;SDS011;42288;52.182;21.156;2024-03-08T08:22:05;74.50;;;29.13;;
16979;SDS011;42288;52.182;21.156;2024-03-08T08:24:33;77.50;;;29.27;;
16979;SDS011;42288;52.182;21.156;2024-03-08T08:26:59;63.97;;;28.23;;
16979;SDS011;42288;52.182;21.156;2024-03-08T08:29:25;52.87;;;23.30;;
16979;SDS011;42288;52.182;21.156;2024-03-08T08:31:51;60.33;;;24.77;;
16979;SDS011;42288;52.182;21.156;2024-03-08T08:34:17;62.43;;;26.43;;
16979;SDS011;42288;52.182;21.156;2024-03-08T08:36:44;59.47;;;24.77;;
16979;SDS011;42288;52.182;21.156;2024-03-08T08:39:10;63.43;;;24.77;;
16979;SDS011;42288;52.182;21.156;2024-03-08T08:41:38;54.63;;;22.07;;
16979;SDS011;42288;52.182;21.156;2024-03-08T08:44:06;52.67;;;21.47;;
16979;SDS011;42288;52.182;21.156;2024-03-08T08:46:35;47.33;;;21.33;;
16979;SDS011;42288;52.182;21.156;2024-03-08T08:49:02;65.90;;;23.23;;
16979;SDS011;42288;52.182;21.156;2024-03-08T08:51:29;59.70;;;23.57;;
16979;SDS011;42288;52.182;21.156;2024-03-08T08:53:55;46.67;;;20.47;;
16979;SDS011;42288;52.182;21.156;2024-03-08T08:56:21;48.23;;;20.93;;
16979;SDS011;42288;52.182;21.156;2024-03-08T08:58:47;51.43;;;20.40;;
16979;SDS011;42288;52.182;21.156;2024-03-08T09:01:14;58.70;;;20.67;;
16979;SDS011;42288;52.182;21.156;2024-03-08T09:03:39;42.87;;;19.30;;
16979;SDS011;42288;52.182;21.156;2024-03-08T09:06:08;41.53;;;18.90;;
16979;SDS011;42288;52.182;21.156;2024-03-08T09:08:36;44.13;;;18.63;;
16979;SDS011;42288;52.182;21.156;2024-03-08T09:11:03;41.40;;;16.93;;
16979;SDS011;42288;52.182;21.156;2024-03-08T09:13:29;35.57;;;16.43;;
16979;SDS011;42288;52.182;21.156;2024-03-08T09:15:54;41.80;;;16.33;;
16979;SDS011;42288;52.182;21.156;2024-03-08T09:18:20;38.10;;;15.23;;
16979;SDS011;42288;52.182;21.156;2024-03-08T09:20:46;39.60;;;17.47;;
16979;SDS011;42288;52.182;21.156;2024-03-08T09:23:12;38.60;;;15.57;;
16979;SDS011;42288;52.182;21.156;2024-03-08T09:25:38;27.90;;;12.63;;
16979;SDS011;42288;52.182;21.156;2024-03-08T09:28:03;34.43;;;14.33;;
16979;SDS011;42288;52.182;21.156;2024-03-08T09:30:31;37.87;;;15.23;;
16979;SDS011;42288;52.182;21.156;2024-03-08T09:32:56;35.77;;;14.97;;
16979;SDS011;42288;52.182;21.156;2024-03-08T09:35:22;27.83;;;13.37;;
16979;SDS011;42288;52.182;21.156;2024-03-08T09:37:47;34.03;;;14.73;;
16979;SDS011;42288;52.182;21.156;2024-03-08T09:40:16;31.40;;;14.83;;
16979;SDS011;42288;52.182;21.156;2024-03-08T09:42:44;39.33;;;14.73;;
16979;SDS011;42288;52.182;21.156;2024-03-08T09:45:12;32.93;;;14.73;;
16979;SDS011;42288;52.182;21.156;2024-03-08T09:47:43;34.97;;;15.20;;
16979;SDS011;42288;52.182;21.156;2024-03-08T09:50:10;29.60;;;13.47;;
16979;SDS011;42288;52.182;21.156;2024-03-08T09:52:41;32.30;;;13.77;;
16979;SDS011;42288;52.182;21.156;2024-03-08T09:55:08;32.77;;;15.67;;
16979;SDS011;42288;52.182;21.156;2024-03-08T09:57:36;31.60;;;13.93;;
16979;SDS011;42288;52.182;21.156;2024-03-08T10:00:03;26.90;;;12.90;;
16979;SDS011;42288;52.182;21.156;2024-03-08T10:02:46;30.20;;;13.67;;
16979;SDS011;42288;52.182;21.156;2024-03-08T10:05:12;30.33;;;13.23;;
16979;SDS011;42288;52.182;21.156;2024-03-08T10:07:38;25.20;;;12.70;;
16979;SDS011;42288;52.182;21.156;2024-03-08T10:10:04;25.97;;;12.23;;
16979;SDS011;42288;52.182;21.156;2024-03-08T10:12:30;26.20;;;12.20;;
16979;SDS011;42288;52.182;21.156;2024-03-08T10:14:58;27.67;;;13.50;;
16979;SDS011;42288;52.182;21.156;2024-03-08T10:17:24;28.73;;;13.77;;
16979;SDS011;42288;52.182;21.156;2024-03-08T10:19:50;33.77;;;13.40;;
16979;SDS011;42288;52.182;21.156;2024-03-08T10:22:19;31.23;;;13.73;;
16979;SDS011;42288;52.182;21.156;2024-03-08T10:24:45;24.37;;;13.13;;
16979;SDS011;42288;52.182;21.156;2024-03-08T10:27:11;33.60;;;13.40;;
16979;SDS011;42288;52.182;21.156;2024-03-08T10:29:37;24.80;;;13.30;;
16979;SDS011;42288;52.182;21.156;2024-03-08T10:32:08;31.13;;;14.03;;
16979;SDS011;42288;52.182;21.156;2024-03-08T10:34:34;24.50;;;12.60;;
16979;SDS011;42288;52.182;21.156;2024-03-08T10:37:03;30.37;;;13.73;;
16979;SDS011;42288;52.182;21.156;2024-03-08T10:39:32;29.63;;;12.90;;
16979;SDS011;42288;52.182;21.156;2024-03-08T10:42:02;24.43;;;12.77;;
16979;SDS011;42288;52.182;21.156;2024-03-08T10:49:31;24.53;;;12.13;;
16979;SDS011;42288;52.182;21.156;2024-03-08T10:52:05;23.90;;;12.23;;
16979;SDS011;42288;52.182;21.156;2024-03-08T10:54:33;29.13;;;13.53;;
16979;SDS011;42288;52.182;21.156;2024-03-08T10:57:03;37.83;;;16.97;;
16979;SDS011;42288;52.182;21.156;2024-03-08T10:59:30;29.23;;;14.20;;
16979;SDS011;42288;52.182;21.156;2024-03-08T11:01:58;25.50;;;13.43;;
16979;SDS011;42288;52.182;21.156;2024-03-08T11:04:24;28.13;;;13.27;;
16979;SDS011;42288;52.182;21.156;2024-03-08T11:06:50;28.27;;;13.20;;
16979;SDS011;42288;52.182;21.156;2024-03-08T11:14:56;23.73;;;13.23;;
16979;SDS011;42288;52.182;21.156;2024-03-08T11:19:57;28.67;;;13.90;;
16979;SDS011;42288;52.182;21.156;2024-03-08T11:22:27;25.00;;;12.80;;
16979;SDS011;42288;52.182;21.156;2024-03-08T11:25:06;25.10;;;12.37;;
16979;SDS011;42288;52.182;21.156;2024-03-08T11:27:35;27.60;;;13.17;;
16979;SDS011;42288;52.182;21.156;2024-03-08T11:30:05;24.53;;;11.83;;
16979;SDS011;42288;52.182;21.156;2024-03-08T11:32:49;29.33;;;14.00;;
16979;SDS011;42288;52.182;21.156;2024-03-08T11:35:21;30.40;;;13.97;;
16979;SDS011;42288;52.182;21.156;2024-03-08T11:37:50;29.10;;;13.93;;
16979;SDS011;42288;52.182;21.156;2024-03-08T11:40:16;29.17;;;13.10;;
16979;SDS011;42288;52.182;21.156;2024-03-08T11:42:44;25.97;;;12.07;;
16979;SDS011;42288;52.182;21.156;2024-03-08T11:45:14;24.13;;;12.07;;
16979;SDS011;42288;52.182;21.156;2024-03-08T11:47:43;23.27;;;12.10;;
16979;SDS011;42288;52.182;21.156;2024-03-08T11:50:12;26.57;;;12.40;;
16979;SDS011;42288;52.182;21.156;2024-03-08T11:52:39;26.87;;;12.67;;
16979;SDS011;42288;52.182;21.156;2024-03-08T11:55:05;27.33;;;12.97;;
16979;SDS011;42288;52.182;21.156;2024-03-08T11:57:31;24.53;;;11.20;;
16979;SDS011;42288;52.182;21.156;2024-03-08T11:59:58;22.43;;;11.03;;
16979;SDS011;42288;52.182;21.156;2024-03-08T12:02:32;24.40;;;11.97;;
16979;SDS011;42288;52.182;21.156;2024-03-08T12:05:03;20.77;;;11.50;;
16979;SDS011;42288;52.182;21.156;2024-03-08T12:07:31;23.60;;;11.33;;
16979;SDS011;42288;52.182;21.156;2024-03-08T12:12:51;22.10;;;10.83;;
16979;SDS011;42288;52.182;21.156;2024-03-08T12:15:21;21.70;;;10.90;;
16979;SDS011;42288;52.182;21.156;2024-03-08T12:17:49;27.33;;;11.93;;
16979;SDS011;42288;52.182;21.156;2024-03-08T12:20:23;27.63;;;12.83;;
16979;SDS011;42288;52.182;21.156;2024-03-08T12:22:51;25.20;;;12.03;;
16979;SDS011;42288;52.182;21.156;2024-03-08T12:25:19;20.53;;;11.17;;
16979;SDS011;42288;52.182;21.156;2024-03-08T12:27:45;23.53;;;12.10;;
16979;SDS011;42288;52.182;21.156;2024-03-08T12:30:18;25.37;;;11.53;;
16979;SDS011;42288;52.182;21.156;2024-03-08T12:32:47;25.93;;;11.40;;
16979;SDS011;42288;52.182;21.156;2024-03-08T12:35:13;26.87;;;12.57;;
16979;SDS011;42288;52.182;21.156;2024-03-08T12:37:39;25.00;;;10.97;;
16979;SDS011;42288;52.182;21.156;2024-03-08T12:40:08;23.00;;;10.73;;
16979;SDS011;42288;52.182;21.156;2024-03-08T12:42:35;28.00;;;11.50;;
16979;SDS011;42288;52.182;21.156;2024-03-08T12:45:00;21.10;;;10.83;;
16979;SDS011;42288;52.182;21.156;2024-03-08T12:47:27;25.37;;;11.53;;
16979;SDS011;42288;52.182;21.156;2024-03-08T12:49:55;25.93;;;10.97;;
16979;SDS011;42288;52.182;21.156;2024-03-08T12:52:20;27.57;;;11.30;;
16979;SDS011;42288;52.182;21.156;2024-03-08T12:54:46;19.90;;;10.73;;
16979;SDS011;42288;52.182;21.156;2024-03-08T12:57:12;22.83;;;10.60;;
16979;SDS011;42288;52.182;21.156;2024-03-08T12:59:38;23.03;;;10.20;;
16979;SDS011;42288;52.182;21.156;2024-03-08T13:02:05;21.53;;;10.33;;
16979;SDS011;42288;52.182;21.156;2024-03-08T13:04:36;30.10;;;11.80;;
16979;SDS011;42288;52.182;21.156;2024-03-08T13:07:01;23.33;;;10.13;;
16979;SDS011;42288;52.182;21.156;2024-03-08T13:09:28;20.93;;;10.70;;
16979;SDS011;42288;52.182;21.156;2024-03-08T13:11:54;24.87;;;11.70;;
16979;SDS011;42288;52.182;21.156;2024-03-08T13:14:20;26.53;;;11.10;;
16979;SDS011;42288;52.182;21.156;2024-03-08T13:16:46;23.30;;;10.10;;
16979;SDS011;42288;52.182;21.156;2024-03-08T13:19:13;22.87;;;10.60;;
16979;SDS011;42288;52.182;21.156;2024-03-08T13:21:39;23.93;;;10.60;;
16979;SDS011;42288;52.182;21.156;2024-03-08T13:24:04;28.07;;;11.13;;
16979;SDS011;42288;52.182;21.156;2024-03-08T13:26:30;20.63;;;10.73;;
16979;SDS011;42288;52.182;21.156;2024-03-08T13:28:59;21.73;;;9.70;;
16979;SDS011;42288;52.182;21.156;2024-03-08T13:31:24;24.83;;;10.53;;
16979;SDS011;42288;52.182;21.156;2024-03-08T13:33:50;22.83;;;11.43;;
16979;SDS011;42288;52.182;21.156;2024-03-08T13:36:16;22.80;;;11.13;;
16979;SDS011;42288;52.182;21.156;2024-03-08T13:38:46;26.17;;;11.17;;
16979;SDS011;42288;52.182;21.156;2024-03-08T13:41:16;23.53;;;10.00;;
16979;SDS011;42288;52.182;21.156;2024-03-08T13:43:45;22.80;;;10.67;;
16979;SDS011;42288;52.182;21.156;2024-03-08T13:46:12;20.53;;;10.67;;
16979;SDS011;42288;52.182;21.156;2024-03-08T13:48:37;26.10;;;10.30;;
16979;SDS011;42288;52.182;21.156;2024-03-08T13:51:06;22.53;;;10.70;;
16979;SDS011;42288;52.182;21.156;2024-03-08T13:53:35;23.53;;;10.40;;
16979;SDS011;42288;52.182;21.156;2024-03-08T13:56:04;18.10;;;10.57;;
16979;SDS011;42288;52.182;21.156;2024-03-08T13:58:30;22.90;;;10.30;;
16979;SDS011;42288;52.182;21.156;2024-03-08T14:00:56;25.37;;;10.43;;
16979;SDS011;42288;52.182;21.156;2024-03-08T14:03:22;26.80;;;11.63;;
16979;SDS011;42288;52.182;21.156;2024-03-08T14:05:49;18.63;;;9.87;;
16979;SDS011;42288;52.182;21.156;2024-03-08T14:08:15;20.83;;;10.33;;
16979;SDS011;42288;52.182;21.156;2024-03-08T14:10:42;21.63;;;9.47;;
16979;SDS011;42288;52.182;21.156;2024-03-08T14:13:08;24.60;;;10.43;;
16979;SDS011;42288;52.182;21.156;2024-03-08T14:15:36;24.67;;;11.13;;
16979;SDS011;42288;52.182;21.156;2024-03-08T14:18:06;20.70;;;9.60;;
16979;SDS011;42288;52.182;21.156;2024-03-08T14:20:34;24.47;;;11.07;;
16979;SDS011;42288;52.182;21.156;2024-03-08T14:23:00;21.43;;;10.47;;